Time;durP1;ratioP1;P1;durP2;ratioP2;P2;SDS_P1;SDS_P2;PMS_P1;PMS_P2;Temp;Humidity;BMP_temperature;BMP_pressure;BME280_temperature;BME280_humidity;BME280_pressure;Samples;Min_cycle;Max_cycle;Signal;HPM_P1;HPM_P2
2022/04/11 00:02:15;;;;;;;2.70;1.92;;;1.10;99.90;;;;;;4963259;28;20866;-73
2022/04/11 00:04:41;;;;;;;2.75;2.00;;;1.10;99.90;;;;;;4952577;28;20071;-81
2022/04/11 00:07:06;;;;;;;2.22;1.30;;;1.10;99.90;;;;;;4957260;28;20596;-80
2022/04/11 00:09:32;;;;;;;2.25;1.65;;;1.10;99.90;;;;;;4952242;29;20051;-80
2022/04/11 00:11:58;;;;;;;1.90;1.53;;;1.10;99.90;;;;;;4970085;28;20040;-72
2022/04/11 00:14:24;;;;;;;2.22;1.35;;;1.00;99.90;;;;;;4955968;28;20305;-80
2022/04/11 00:16:50;;;;;;;1.98;1.48;;;1.00;99.90;;;;;;4961011;28;20031;-80
2022/04/11 00:19:15;;;;;;;2.47;1.40;;;1.00;99.90;;;;;;4945707;28;20089;-80
2022/04/11 00:21:41;;;;;;;2.10;1.40;;;0.90;99.90;;;;;;4955367;28;20781;-80
2022/04/11 00:24:07;;;;;;;2.03;1.33;;;0.90;99.90;;;;;;4954565;28;20051;-80
2022/04/11 00:26:33;;;;;;;2.40;1.60;;;0.80;99.90;;;;;;4942902;29;20451;-80
2022/04/11 00:28:59;;;;;;;4.25;1.80;;;0.80;99.90;;;;;;4967610;28;20097;-80
2022/04/11 00:31:25;;;;;;;3.13;1.60;;;0.70;99.90;;;;;;4948254;28;20035;-80
2022/04/11 00:33:50;;;;;;;4.60;1.85;;;0.70;99.90;;;;;;4952601;29;20106;-80
2022/04/11 00:36:16;;;;;;;5.00;2.47;;;0.60;99.90;;;;;;4971827;28;20051;-80
2022/04/11 00:38:42;;;;;;;5.70;2.40;;;0.60;99.90;;;;;;4951417;29;20047;-81
2022/04/11 00:41:08;;;;;;;8.38;3.28;;;0.50;99.90;;;;;;4951017;28;20039;-80
2022/04/11 00:43:34;;;;;;;6.63;2.30;;;0.50;99.90;;;;;;4958298;28;20406;-80
2022/04/11 00:46:00;;;;;;;7.75;3.35;;;0.50;99.90;;;;;;4942658;28;20107;-81
2022/04/11 00:48:27;;;;;;;9.07;3.67;;;0.50;99.90;;;;;;4971041;28;20438;-80
2022/04/11 00:50:56;;;;;;;10.93;4.40;;;0.50;99.90;;;;;;4982172;28;20099;-80
2022/04/11 00:53:23;;;;;;;12.52;5.20;;;0.40;99.90;;;;;;4951224;29;20055;-80
2022/04/11 00:55:52;;;;;;;14.55;5.30;;;0.40;99.90;;;;;;4951695;29;20053;-80
2022/04/11 00:58:18;;;;;;;18.35;5.72;;;0.40;99.90;;;;;;4943352;29;20395;-80
2022/04/11 01:00:44;;;;;;;13.70;4.63;;;0.30;99.90;;;;;;4952079;29;20394;-79
2022/04/11 01:03:10;;;;;;;15.27;4.97;;;0.30;99.90;;;;;;4955426;29;20043;-80
2022/04/11 01:05:36;;;;;;;15.38;5.55;;;0.30;99.90;;;;;;4952792;29;20478;-80
2022/04/11 01:08:07;;;;;;;11.40;4.90;;;0.20;99.90;;;;;;4952161;29;20146;-80
2022/04/11 01:10:34;;;;;;;11.20;4.30;;;0.20;99.90;;;;;;4951304;28;20403;-80
2022/04/11 01:13:01;;;;;;;10.05;3.78;;;0.10;99.90;;;;;;4953231;29;20047;-80
2022/04/11 01:15:27;;;;;;;9.70;3.72;;;0.10;99.90;;;;;;4970006;28;20482;-80
2022/04/11 01:17:53;;;;;;;8.57;2.70;;;0.10;99.90;;;;;;4937221;29;20063;-80
2022/04/11 01:20:22;;;;;;;5.63;2.35;;;0.10;99.90;;;;;;4952236;29;20039;-80
2022/04/11 01:22:48;;;;;;;5.22;2.10;;;0.10;99.90;;;;;;4933731;28;20054;-80
2022/04/11 01:25:17;;;;;;;2.55;1.30;;;0.10;99.90;;;;;;4951102;29;20047;-80
2022/04/11 01:27:43;;;;;;;2.72;1.38;;;0.10;99.90;;;;;;4952060;29;20047;-80
2022/04/11 01:30:12;;;;;;;3.22;1.45;;;0.10;99.90;;;;;;4935415;29;20410;-80
2022/04/11 01:32:38;;;;;;;2.28;1.00;;;0.10;99.90;;;;;;4951036;29;20045;-80
2022/04/11 01:35:16;;;;;;;2.28;0.90;;;0.10;99.90;;;;;;4966217;28;20124;-74
2022/04/11 01:37:42;;;;;;;2.67;1.00;;;0.00;99.90;;;;;;4948357;29;20086;-74
2022/04/11 01:40:08;;;;;;;1.63;1.08;;;0.00;99.90;;;;;;4950872;28;20107;-74
2022/04/11 01:42:34;;;;;;;1.30;0.70;;;0.10;99.90;;;;;;4951236;29;20051;-74
2022/04/11 01:44:59;;;;;;;1.40;0.73;;;0.10;99.90;;;;;;4951267;28;20478;-74
2022/04/11 01:47:25;;;;;;;1.73;0.75;;;0.10;99.90;;;;;;4950653;29;20035;-74
2022/04/11 01:49:51;;;;;;;1.40;0.70;;;0.10;99.90;;;;;;4966246;28;20040;-74
2022/04/11 01:52:16;;;;;;;1.73;0.80;;;0.00;99.90;;;;;;4918611;29;20299;-73
2022/04/11 01:54:42;;;;;;;1.45;0.70;;;0.10;99.90;;;;;;4950267;29;20047;-73
2022/04/11 01:57:08;;;;;;;1.27;0.80;;;0.10;99.90;;;;;;4966970;28;20094;-73
2022/04/11 01:59:33;;;;;;;1.00;0.60;;;0.10;99.90;;;;;;4916867;29;20047;-73
2022/04/11 02:01:59;;;;;;;1.00;0.70;;;0.10;99.90;;;;;;4945787;29;20405;-74
2022/04/11 02:04:25;;;;;;;1.30;0.70;;;0.10;99.90;;;;;;4950065;29;20774;-73
2022/04/11 02:06:50;;;;;;;1.10;0.63;;;0.00;99.90;;;;;;4933286;29;20513;-73
2022/04/11 02:09:16;;;;;;;0.90;0.60;;;0.00;99.90;;;;;;4934306;29;20126;-74
2022/04/11 02:11:41;;;;;;;0.80;0.60;;;0.00;99.90;;;;;;4952738;28;20043;-73
2022/04/11 02:14:07;;;;;;;1.45;0.60;;;0.00;99.90;;;;;;4947606;29;20039;-73
2022/04/11 02:16:33;;;;;;;0.88;0.57;;;0.00;99.90;;;;;;4950157;29;20439;-73
2022/04/11 02:18:58;;;;;;;2.15;0.60;;;0.00;99.90;;;;;;4934255;29;20043;-73
2022/04/11 02:21:24;;;;;;;1.30;0.50;;;0.00;99.90;;;;;;4946401;29;20035;-73
2022/04/11 02:23:50;;;;;;;0.47;0.43;;;0.00;99.90;;;;;;4958398;28;20476;-73
2022/04/11 02:26:15;;;;;;;0.80;0.60;;;0.00;99.90;;;;;;4939673;29;20294;-79
2022/04/11 02:28:41;;;;;;;0.90;0.50;;;-0.10;99.90;;;;;;4966813;28;20514;-80
2022/04/11 02:31:07;;;;;;;0.40;0.40;;;-0.10;99.90;;;;;;4964272;28;20049;-81
2022/04/11 02:33:32;;;;;;;0.95;0.57;;;-0.10;99.90;;;;;;4966788;28;20109;-73
2022/04/11 02:35:58;;;;;;;1.10;0.60;;;-0.10;99.90;;;;;;4950684;28;20388;-73
2022/04/11 02:38:24;;;;;;;1.05;0.52;;;-0.20;99.90;;;;;;4937452;29;20047;-73
2022/04/11 02:40:50;;;;;;;0.68;0.50;;;-0.10;99.90;;;;;;4953276;28;20580;-73
2022/04/11 02:43:15;;;;;;;0.80;0.53;;;-0.20;99.90;;;;;;4970405;28;20130;-72
2022/04/11 02:45:41;;;;;;;0.70;0.60;;;-0.20;99.90;;;;;;4969889;28;20478;-72
2022/04/11 02:48:07;;;;;;;0.98;0.50;;;-0.20;99.90;;;;;;4953423;29;20420;-73
2022/04/11 02:50:32;;;;;;;0.70;0.47;;;-0.20;99.90;;;;;;4952524;28;20069;-73
2022/04/11 02:52:58;;;;;;;0.70;0.38;;;-0.20;99.90;;;;;;4951930;29;20046;-73
2022/04/11 02:55:24;;;;;;;1.00;0.60;;;-0.10;99.90;;;;;;4937398;29;20130;-73
2022/04/11 02:57:49;;;;;;;0.93;0.57;;;-0.10;99.90;;;;;;4953256;29;20774;-73
2022/04/11 03:00:15;;;;;;;1.00;0.60;;;-0.10;99.90;;;;;;4953670;29;20046;-73
2022/04/11 03:02:41;;;;;;;0.57;0.50;;;-0.10;99.90;;;;;;4952820;28;20073;-73
2022/04/11 03:05:07;;;;;;;0.77;0.60;;;-0.10;99.90;;;;;;4950987;29;20047;-73
2022/04/11 03:07:33;;;;;;;1.10;0.70;;;-0.20;99.90;;;;;;4921328;29;20051;-73
2022/04/11 03:09:59;;;;;;;1.50;0.50;;;-0.20;99.90;;;;;;4950857;29;20126;-73
2022/04/11 03:12:25;;;;;;;0.52;0.50;;;-0.20;99.90;;;;;;4962944;28;20435;-73
2022/04/11 03:14:51;;;;;;;1.27;0.80;;;-0.20;99.90;;;;;;4942914;29;20043;-73
2022/04/11 03:17:17;;;;;;;0.60;0.50;;;-0.10;99.90;;;;;;4953480;29;20046;-73
2022/04/11 03:19:46;;;;;;;2.25;0.50;;;-0.10;99.90;;;;;;4952112;28;20074;-73
2022/04/11 03:22:12;;;;;;;1.13;0.60;;;-0.10;99.90;;;;;;4949526;29;20051;-73
2022/04/11 03:24:38;;;;;;;0.98;0.70;;;0.00;99.90;;;;;;4966986;28;20098;-73
2022/04/11 03:27:04;;;;;;;0.68;0.50;;;0.00;99.90;;;;;;4953116;29;20039;-73
2022/04/11 03:29:30;;;;;;;0.52;0.50;;;0.00;99.90;;;;;;4952600;29;20051;-73
2022/04/11 03:31:56;;;;;;;0.80;0.60;;;0.10;99.90;;;;;;4966655;28;20036;-73
2022/04/11 03:34:22;;;;;;;0.80;0.50;;;0.20;99.90;;;;;;4951764;29;20039;-80
2022/04/11 03:36:48;;;;;;;0.77;0.57;;;0.20;99.90;;;;;;4952643;29;20099;-80
2022/04/11 03:39:14;;;;;;;0.75;0.60;;;0.30;99.90;;;;;;4956691;28;20077;-80
2022/04/11 03:41:43;;;;;;;0.63;0.45;;;0.30;99.90;;;;;;4953045;28;20498;-81
2022/04/11 03:44:12;;;;;;;1.63;0.60;;;0.30;99.90;;;;;;4965347;28;20051;-80
2022/04/11 03:46:38;;;;;;;1.38;0.95;;;0.40;99.90;;;;;;4954268;28;20047;-80
2022/04/11 03:49:05;;;;;;;1.05;0.60;;;0.40;99.90;;;;;;4950578;28;20043;-80
2022/04/11 03:51:31;;;;;;;1.77;0.70;;;0.50;99.90;;;;;;4936534;29;20755;-80
2022/04/11 03:53:57;;;;;;;0.90;0.50;;;0.60;99.90;;;;;;4951079;29;20717;-81
2022/04/11 03:56:23;;;;;;;1.83;0.70;;;0.60;99.90;;;;;;4952476;29;20043;-79
2022/04/11 03:58:49;;;;;;;0.85;0.50;;;0.70;99.90;;;;;;4936134;29;20042;-80
2022/04/11 04:01:14;;;;;;;0.93;0.57;;;0.80;99.90;;;;;;4934739;29;20042;-80
2022/04/11 04:03:40;;;;;;;1.00;0.75;;;0.80;99.90;;;;;;4950750;29;20475;-79
2022/04/11 04:06:06;;;;;;;0.85;0.60;;;0.90;99.90;;;;;;4951191;29;20449;-79
2022/04/11 04:08:32;;;;;;;1.10;0.70;;;1.00;99.90;;;;;;4951273;28;20047;-80
2022/04/11 04:10:58;;;;;;;1.17;0.77;;;1.00;99.90;;;;;;4972707;28;20039;-80
2022/04/11 04:13:24;;;;;;;0.55;0.55;;;1.00;99.90;;;;;;4936844;29;20039;-80
2022/04/11 04:15:50;;;;;;;0.50;0.50;;;1.00;99.90;;;;;;4937447;28;20050;-80
2022/04/11 04:18:16;;;;;;;1.02;0.80;;;1.10;99.90;;;;;;4953381;28;20491;-80
2022/04/11 04:20:41;;;;;;;0.88;0.65;;;1.10;99.90;;;;;;4936117;28;20169;-80
2022/04/11 04:23:08;;;;;;;0.70;0.60;;;1.10;99.90;;;;;;4954045;28;20122;-80
2022/04/11 04:25:34;;;;;;;0.90;0.65;;;1.20;99.90;;;;;;4953572;28;20039;-80
2022/04/11 04:28:00;;;;;;;1.58;1.00;;;1.20;99.90;;;;;;4968338;28;20055;-80
2022/04/11 04:30:26;;;;;;;1.25;0.55;;;1.30;99.90;;;;;;4957983;28;20054;-80
2022/04/11 04:32:52;;;;;;;0.70;0.55;;;1.30;99.90;;;;;;4950797;29;20039;-81
2022/04/11 04:35:17;;;;;;;0.90;0.70;;;1.40;99.90;;;;;;4952177;29;20047;-81
2022/04/11 04:37:43;;;;;;;0.60;0.60;;;1.40;99.90;;;;;;4966953;28;20134;-79
2022/04/11 04:40:10;;;;;;;0.52;0.38;;;1.40;99.90;;;;;;4948402;28;20074;-79
2022/04/11 04:42:36;;;;;;;;;;;1.40;99.90;;;;;;4952554;29;20410;-80
2022/04/11 04:45:02;;;;;;;1.42;0.77;;;1.50;99.90;;;;;;4963353;28;20006;-79
2022/04/11 04:47:28;;;;;;;0.65;0.55;;;1.50;99.90;;;;;;4951707;29;20051;-80
2022/04/11 04:49:54;;;;;;;0.63;0.50;;;1.60;99.90;;;;;;4934302;29;20107;-80
2022/04/11 04:52:19;;;;;;;1.05;0.63;;;1.60;99.90;;;;;;4935843;29;20090;-80
2022/04/11 04:54:45;;;;;;;1.40;0.90;;;1.70;99.90;;;;;;4942812;29;20054;-80
2022/04/11 04:57:11;;;;;;;0.63;0.60;;;1.70;99.90;;;;;;4951979;28;20369;-80
2022/04/11 04:59:36;;;;;;;1.13;0.70;;;1.80;99.90;;;;;;4931928;28;20042;-79
2022/04/11 05:02:02;;;;;;;0.68;0.50;;;1.80;99.90;;;;;;4950959;28;20046;-80
2022/04/11 05:04:28;;;;;;;1.10;0.68;;;1.80;99.90;;;;;;4951435;28;20050;-79
2022/04/11 05:06:54;;;;;;;0.82;0.63;;;1.90;99.90;;;;;;4935963;29;20053;-80
2022/04/11 05:09:19;;;;;;;0.93;0.45;;;1.90;99.90;;;;;;4951911;29;20046;-79
2022/04/11 05:11:45;;;;;;;0.87;0.60;;;2.00;99.90;;;;;;4951192;28;20053;-80
2022/04/11 05:14:11;;;;;;;0.75;0.52;;;2.00;99.90;;;;;;4950904;28;20291;-80
2022/04/11 05:16:37;;;;;;;0.65;0.60;;;2.10;99.90;;;;;;4948116;28;20043;-79
2022/04/11 05:19:03;;;;;;;0.60;0.55;;;2.10;99.90;;;;;;4950265;29;20047;-79
2022/04/11 05:21:31;;;;;;;0.93;0.65;;;2.20;99.90;;;;;;4949055;29;20043;-79
2022/04/11 05:23:56;;;;;;;1.13;0.60;;;2.30;99.90;;;;;;4948500;29;20039;-79
2022/04/11 05:26:23;;;;;;;0.43;0.43;;;2.30;99.90;;;;;;4950195;29;20097;-79
2022/04/11 05:28:51;;;;;;;0.93;0.70;;;2.40;99.90;;;;;;4933572;29;20061;-79
2022/04/11 05:31:17;;;;;;;0.77;0.70;;;2.40;99.90;;;;;;4950839;28;20050;-73
2022/04/11 05:33:43;;;;;;;1.42;0.80;;;2.50;99.90;;;;;;4949227;29;20066;-73
2022/04/11 05:36:09;;;;;;;1.30;1.00;;;2.50;99.90;;;;;;4951091;29;20134;-73
2022/04/11 05:38:36;;;;;;;2.00;1.25;;;2.60;99.90;;;;;;4949336;29;20133;-73
2022/04/11 05:41:02;;;;;;;1.83;1.20;;;2.70;99.90;;;;;;4949732;29;20478;-70
2022/04/11 05:43:28;;;;;;;1.50;1.10;;;2.70;99.90;;;;;;4933434;29;20278;-73
2022/04/11 05:45:53;;;;;;;1.75;0.80;;;2.80;99.90;;;;;;4949781;29;20047;-73
2022/04/11 05:48:19;;;;;;;0.88;0.70;;;2.90;99.90;;;;;;4950414;29;20130;-72
2022/04/11 05:50:45;;;;;;;1.48;0.98;;;3.00;99.90;;;;;;4932802;29;20098;-72
2022/04/11 05:53:11;;;;;;;0.70;0.60;;;3.10;99.90;;;;;;4950363;28;20146;-73
2022/04/11 05:55:36;;;;;;;1.67;0.90;;;3.20;99.90;;;;;;4950234;28;20050;-73
2022/04/11 05:58:02;;;;;;;1.40;0.80;;;3.20;99.90;;;;;;4945359;28;20055;-72
2022/04/11 06:00:28;;;;;;;1.67;0.90;;;3.30;99.90;;;;;;4934339;29;20039;-72
2022/04/11 06:02:54;;;;;;;1.33;0.80;;;3.30;99.90;;;;;;4950540;29;20145;-72
2022/04/11 06:05:20;;;;;;;1.25;0.80;;;3.30;99.90;;;;;;4934253;29;20474;-73
2022/04/11 06:07:45;;;;;;;1.05;0.57;;;3.40;99.90;;;;;;4965996;28;20043;-74
2022/04/11 06:10:12;;;;;;;1.85;0.88;;;3.40;99.90;;;;;;4951832;28;20474;-72
2022/04/11 06:12:38;;;;;;;1.38;0.90;;;3.50;99.90;;;;;;4954332;29;20074;-71
2022/04/11 06:15:05;;;;;;;0.88;0.75;;;3.50;99.90;;;;;;4938425;29;20067;-72
2022/04/11 06:17:32;;;;;;;1.23;0.70;;;3.50;99.90;;;;;;4954684;29;20055;-71
2022/04/11 06:19:59;;;;;;;1.63;0.90;;;3.60;99.90;;;;;;4954384;29;20043;-71
2022/04/11 06:22:26;;;;;;;1.00;0.70;;;3.70;99.90;;;;;;4944933;29;20437;-71
2022/04/11 06:24:58;;;;;;;;;;;3.70;99.90;;;;;;4954299;29;20486;-72
2022/04/11 06:27:24;;;;;;;1.02;0.57;;;3.80;99.90;;;;;;4951234;29;19922;-72
2022/04/11 06:29:56;;;;;;;1.50;1.00;;;3.90;99.90;;;;;;4932851;29;20050;-72
2022/04/11 06:32:29;;;;;;;1.65;0.90;;;3.90;99.90;;;;;;4934639;29;20122;-72
2022/04/11 06:34:55;;;;;;;3.63;1.00;;;4.00;99.90;;;;;;4953750;29;20043;-72
2022/04/11 06:37:21;;;;;;;2.03;1.30;;;4.10;99.90;;;;;;4952744;29;20065;-73
2022/04/11 06:39:47;;;;;;;3.58;1.45;;;4.20;99.90;;;;;;4953524;29;20066;-74
2022/04/11 06:42:13;;;;;;;2.17;1.20;;;4.30;99.90;;;;;;4953792;28;20082;-73
2022/04/11 06:44:39;;;;;;;1.92;1.08;;;4.40;99.90;;;;;;4952209;29;20490;-73
2022/04/11 06:47:06;;;;;;;2.47;1.48;;;4.50;99.90;;;;;;4946938;29;20045;-72
2022/04/11 06:49:31;;;;;;;3.78;1.80;;;4.60;99.90;;;;;;4965988;28;20115;-73
2022/04/11 06:51:57;;;;;;;4.00;1.67;;;4.70;99.90;;;;;;4940420;28;20409;-74
2022/04/11 06:54:23;;;;;;;2.42;1.60;;;4.80;99.90;;;;;;4948527;29;20289;-73
2022/04/11 06:56:49;;;;;;;2.15;1.23;;;5.00;99.90;;;;;;4938131;29;20043;-81
2022/04/11 06:59:15;;;;;;;2.60;1.10;;;5.10;99.90;;;;;;4954054;29;20047;-80
2022/04/11 07:01:41;;;;;;;1.10;0.85;;;5.20;99.90;;;;;;4938189;29;20307;-80
2022/04/11 07:04:08;;;;;;;;;;;5.40;99.90;;;;;;4954288;29;20043;-80
2022/04/11 07:06:34;;;;;;;2.97;1.40;;;5.50;99.90;;;;;;4954076;29;19918;-80
2022/04/11 07:08:59;;;;;;;2.90;1.40;;;5.60;99.90;;;;;;4952838;29;20039;-81
2022/04/11 07:11:25;;;;;;;2.58;1.58;;;5.80;99.90;;;;;;4954255;28;20046;-80
2022/04/11 07:13:51;;;;;;;2.47;1.50;;;5.80;99.90;;;;;;4952566;29;20097;-80
2022/04/11 07:16:16;;;;;;;2.42;1.63;;;5.90;99.90;;;;;;4938542;29;20054;-81
2022/04/11 07:18:42;;;;;;;2.35;1.30;;;6.00;99.90;;;;;;4934373;29;20383;-81
2022/04/11 07:21:08;;;;;;;3.88;1.60;;;6.10;99.90;;;;;;4952437;28;20043;-81
2022/04/11 07:23:33;;;;;;;2.72;1.40;;;6.20;99.90;;;;;;4937304;29;20031;-80
2022/04/11 07:25:59;;;;;;;2.13;1.15;;;6.40;99.90;;;;;;4938184;29;20043;-81
2022/04/11 07:28:25;;;;;;;2.38;1.60;;;6.50;99.90;;;;;;4953472;28;20039;-80
2022/04/11 07:30:51;;;;;;;3.10;1.35;;;6.50;99.90;;;;;;4953468;28;20046;-80
2022/04/11 07:33:18;;;;;;;2.20;1.30;;;6.60;99.90;;;;;;4954055;29;20043;-79
2022/04/11 07:35:44;;;;;;;2.85;1.30;;;6.70;99.90;;;;;;4953082;29;20111;-80
2022/04/11 07:38:09;;;;;;;1.98;1.10;;;6.80;99.90;;;;;;4953451;29;20572;-80
2022/04/11 07:40:35;;;;;;;3.45;1.33;;;6.90;99.90;;;;;;4953484;29;20115;-80
2022/04/11 07:43:01;;;;;;;3.15;1.45;;;7.00;99.90;;;;;;4969987;28;20110;-80
2022/04/11 07:45:27;;;;;;;2.63;1.02;;;7.10;99.90;;;;;;4953391;28;20050;-80
2022/04/11 07:47:53;;;;;;;2.22;1.05;;;7.30;99.90;;;;;;4953521;29;20050;-80
2022/04/11 07:50:19;;;;;;;3.13;1.00;;;7.40;99.90;;;;;;4952793;29;20047;-72
2022/04/11 07:52:45;;;;;;;1.73;1.00;;;7.60;99.90;;;;;;4953358;29;20053;-72
2022/04/11 07:55:12;;;;;;;2.55;0.80;;;7.60;99.90;;;;;;4952887;29;20463;-73
2022/04/11 07:57:39;;;;;;;3.08;1.10;;;7.70;99.90;;;;;;4937518;29;20039;-71
2022/04/11 08:00:09;;;;;;;;;;;7.80;99.90;;;;;;4952757;28;20043;-72
2022/04/11 08:02:35;;;;;;;2.97;1.38;;;7.90;99.90;;;;;;4952878;29;19926;-72
2022/04/11 08:05:02;;;;;;;2.78;0.93;;;7.90;99.90;;;;;;4952582;28;20047;-71
2022/04/11 08:07:32;;;;;;;3.38;1.13;;;8.00;99.90;;;;;;4952811;28;20053;-71
2022/04/11 08:10:02;;;;;;;2.85;0.90;;;8.20;99.90;;;;;;4968463;28;20048;-71
2022/04/11 08:12:28;;;;;;;3.15;1.30;;;8.30;99.90;;;;;;4952536;28;20042;-71
2022/04/11 08:14:54;;;;;;;2.65;1.00;;;8.60;99.90;;;;;;4968768;28;20051;-72
2022/04/11 08:17:19;;;;;;;4.88;1.20;;;8.70;99.90;;;;;;4949437;28;20062;-72
2022/04/11 08:19:45;;;;;;;2.00;1.20;;;8.80;99.90;;;;;;4933633;29;20073;-71
2022/04/11 08:22:11;;;;;;;5.00;1.15;;;8.90;99.90;;;;;;4923534;29;20039;-72
2022/04/11 08:24:37;;;;;;;3.30;1.25;;;9.00;99.90;;;;;;4952139;29;20513;-72
2022/04/11 08:27:03;;;;;;;3.10;1.10;;;9.20;99.90;;;;;;4952276;29;20047;-72
2022/04/11 08:29:28;;;;;;;3.40;1.40;;;9.50;99.90;;;;;;4952382;29;20047;-72
2022/04/11 08:31:54;;;;;;;3.38;1.30;;;9.60;99.90;;;;;;4952009;28;20546;-72
2022/04/11 08:34:19;;;;;;;4.95;1.40;;;9.70;99.90;;;;;;4932856;29;20395;-72
2022/04/11 08:36:45;;;;;;;2.85;1.30;;;9.70;99.90;;;;;;4919226;29;20109;-72
2022/04/11 08:39:11;;;;;;;2.83;1.40;;;9.80;99.90;;;;;;4952254;29;20094;-72
2022/04/11 08:41:38;;;;;;;3.28;1.10;;;10.00;99.90;;;;;;4951876;29;20047;-72
2022/04/11 08:44:05;;;;;;;2.38;1.25;;;10.00;99.90;;;;;;4952064;29;20050;-72
2022/04/11 08:46:32;;;;;;;2.22;1.02;;;10.20;99.90;;;;;;4952297;29;20113;-80
2022/04/11 08:49:03;;;;;;;5.13;1.42;;;10.50;99.90;;;;;;4951877;28;20090;-81
2022/04/11 08:51:33;;;;;;;3.25;1.10;;;10.90;99.90;;;;;;4951593;29;20047;-80
2022/04/11 08:54:05;;;;;;;4.05;1.60;;;11.40;99.90;;;;;;4951856;29;20043;-80
2022/04/11 08:56:32;;;;;;;4.93;1.55;;;11.50;99.50;;;;;;4951761;29;20046;-72
2022/04/11 08:58:58;;;;;;;2.78;1.30;;;11.60;99.90;;;;;;4951882;28;20055;-72
2022/04/11 09:01:25;;;;;;;4.25;1.52;;;11.60;98.00;;;;;;4951308;29;20474;-72
2022/04/11 09:03:51;;;;;;;3.42;1.10;;;11.70;99.60;;;;;;4938455;29;20512;-73
2022/04/11 09:06:18;;;;;;;1.85;1.05;;;11.60;96.90;;;;;;4940827;29;20051;-72
2022/04/11 09:08:52;;;;;;;1.77;1.05;;;11.50;98.80;;;;;;4951860;29;20051;-72
2022/04/11 09:11:35;;;;;;;2.60;0.90;;;11.60;97.90;;;;;;4951023;29;20039;-72
2022/04/11 09:14:03;;;;;;;2.38;1.10;;;11.70;97.10;;;;;;4932547;29;20044;-72
2022/04/11 09:16:48;;;;;;;2.75;0.90;;;11.70;97.30;;;;;;4946695;29;20063;-72
2022/04/11 09:19:27;;;;;;;2.80;1.00;;;11.70;94.10;;;;;;4951195;29;20043;-72
2022/04/11 09:21:56;;;;;;;1.58;0.80;;;11.90;94.90;;;;;;4925518;29;20051;-73
2022/04/11 09:24:24;;;;;;;3.17;1.10;;;12.00;94.10;;;;;;4949987;28;20066;-72
2022/04/11 09:26:57;;;;;;;4.13;0.93;;;12.40;92.30;;;;;;4950986;28;20055;-72
2022/04/11 09:29:24;;;;;;;2.97;0.90;;;12.50;91.40;;;;;;4951232;29;20485;-72
2022/04/11 09:31:50;;;;;;;1.67;0.80;;;12.70;91.90;;;;;;4950734;28;20118;-73
2022/04/11 09:34:22;;;;;;;3.08;0.85;;;12.70;88.70;;;;;;4950453;29;20163;-73
2022/04/11 09:36:56;;;;;;;3.47;0.95;;;12.90;90.80;;;;;;4948080;29;20063;-73
2022/04/11 09:39:23;;;;;;;2.17;0.80;;;12.90;90.60;;;;;;4933124;29;20039;-73
2022/04/11 09:41:50;;;;;;;3.80;1.05;;;13.00;90.00;;;;;;4949309;28;20051;-73
2022/04/11 09:44:21;;;;;;;2.95;1.00;;;12.90;89.10;;;;;;4954115;28;20510;-73
2022/04/11 09:46:48;;;;;;;2.05;1.00;;;13.10;90.50;;;;;;4948615;28;20761;-73
2022/04/11 09:49:14;;;;;;;4.00;1.17;;;13.10;90.30;;;;;;4941001;28;20054;-73
2022/04/11 09:52:03;;;;;;;4.15;1.30;;;13.10;90.20;;;;;;4964553;28;20047;-73
2022/04/11 09:54:29;;;;;;;4.50;1.60;;;13.00;90.80;;;;;;4944688;28;20471;-73
2022/04/11 09:56:58;;;;;;;6.75;1.25;;;13.10;90.00;;;;;;4948365;29;20477;-72
2022/04/11 09:59:25;;;;;;;3.17;1.60;;;13.10;88.20;;;;;;4944956;29;20489;-72
2022/04/11 10:01:52;;;;;;;2.42;1.00;;;13.20;90.20;;;;;;4950352;29;20134;-72
2022/04/11 10:04:18;;;;;;;3.40;1.23;;;13.30;88.50;;;;;;4957787;28;20047;-73
2022/04/11 10:06:44;;;;;;;2.72;1.10;;;13.40;85.70;;;;;;4940042;29;20062;-72
2022/04/11 10:09:11;;;;;;;2.13;0.93;;;13.40;83.50;;;;;;4949937;29;20479;-71
2022/04/11 10:11:37;;;;;;;3.08;1.40;;;13.50;84.00;;;;;;4949352;28;20119;-71
2022/04/11 10:14:04;;;;;;;2.85;1.25;;;13.70;83.40;;;;;;4950098;28;20046;-70
2022/04/11 10:16:29;;;;;;;2.53;1.33;;;13.90;83.30;;;;;;4950646;29;20054;-70
2022/04/11 10:19:02;;;;;;;2.42;1.00;;;13.90;84.90;;;;;;4950421;29;20043;-71
2022/04/11 10:21:29;;;;;;;1.75;0.90;;;14.10;81.60;;;;;;4950272;29;20137;-71
2022/04/11 10:24:06;;;;;;;3.97;1.40;;;14.30;82.20;;;;;;4950810;28;20129;-71
2022/04/11 10:26:47;;;;;;;3.85;1.55;;;14.20;80.50;;;;;;4950970;29;20075;-71
2022/04/11 10:29:38;;;;;;;3.03;1.08;;;14.20;76.80;;;;;;4950558;28;20047;-71
2022/04/11 10:32:09;;;;;;;2.25;1.15;;;14.10;76.20;;;;;;4950686;29;20039;-71
2022/04/11 10:34:48;;;;;;;2.38;1.08;;;14.30;78.10;;;;;;4950629;29;20123;-70
2022/04/11 10:37:15;;;;;;;5.53;1.10;;;14.40;76.30;;;;;;4950350;29;20059;-72
2022/04/11 10:39:43;;;;;;;1.80;1.20;;;14.20;76.00;;;;;;4950523;28;20130;-72
2022/04/11 10:42:20;;;;;;;1.63;0.90;;;14.30;76.60;;;;;;4950528;28;20054;-72
2022/04/11 10:44:46;;;;;;;;;;;14.70;76.50;;;;;;4932174;29;20040;-72
2022/04/11 10:47:11;;;;;;;2.92;1.40;;;14.80;75.40;;;;;;4947948;29;19922;-71
2022/04/11 10:49:49;;;;;;;2.72;1.30;;;14.90;74.60;;;;;;4950727;29;20070;-71
2022/04/11 10:52:33;;;;;;;5.15;1.48;;;14.90;76.80;;;;;;4950770;29;20090;-71
2022/04/11 10:55:11;;;;;;;4.25;1.60;;;14.80;76.60;;;;;;4931626;29;20047;-71
2022/04/11 10:57:42;;;;;;;2.90;1.27;;;14.70;73.80;;;;;;4943442;29;20054;-70
2022/04/11 11:00:09;;;;;;;3.63;1.67;;;14.70;74.90;;;;;;4952535;28;20051;-71
2022/04/11 11:02:53;;;;;;;2.35;1.25;;;14.70;77.10;;;;;;4951777;28;20051;-72
2022/04/11 11:05:27;;;;;;;2.67;1.20;;;14.80;78.20;;;;;;4951082;29;20039;-72
2022/04/11 11:08:11;;;;;;;3.63;1.55;;;15.10;80.10;;;;;;4951062;29;20054;-72
2022/04/11 11:10:55;;;;;;;1.63;1.00;;;15.20;73.70;;;;;;4941444;28;20051;-72
2022/04/11 11:13:36;;;;;;;2.20;1.05;;;15.30;76.50;;;;;;4953782;29;20126;-73
2022/04/11 11:16:08;;;;;;;1.85;1.23;;;15.50;74.80;;;;;;4934050;29;20062;-71
2022/04/11 11:18:48;;;;;;;2.70;1.25;;;15.60;76.40;;;;;;4952193;28;20051;-72
2022/04/11 11:21:37;;;;;;;3.47;1.40;;;15.70;75.50;;;;;;4951296;29;20043;-73
2022/04/11 11:24:12;;;;;;;2.97;1.58;;;15.70;76.50;;;;;;4953009;29;20043;-73
2022/04/11 11:26:54;;;;;;;2.90;1.42;;;15.70;73.40;;;;;;4953116;29;20050;-72
2022/04/11 11:29:21;;;;;;;3.75;1.80;;;15.70;74.50;;;;;;4952088;29;20107;-72
2022/04/11 11:31:49;;;;;;;3.15;1.88;;;15.70;74.90;;;;;;4953235;28;20043;-72
2022/04/11 11:34:16;;;;;;;2.38;1.30;;;15.60;72.30;;;;;;4936745;29;20158;-72
2022/04/11 11:36:42;;;;;;;3.70;1.80;;;15.60;75.60;;;;;;4952803;29;20065;-72
2022/04/11 11:39:19;;;;;;;2.53;1.60;;;15.80;73.70;;;;;;4952855;29;20051;-72
2022/04/11 11:41:52;;;;;;;4.70;1.67;;;15.90;73.40;;;;;;4937510;29;20151;-72
2022/04/11 11:44:19;;;;;;;3.83;1.52;;;15.90;73.20;;;;;;4953070;29;20542;-72
2022/04/11 11:46:56;;;;;;;3.22;1.35;;;16.10;73.20;;;;;;4936764;29;20082;-72
2022/04/11 11:49:23;;;;;;;4.65;1.60;;;16.00;73.70;;;;;;4953152;29;20535;-73
2022/04/11 11:51:50;;;;;;;3.25;1.60;;;16.20;73.10;;;;;;4952667;29;20054;-72
2022/04/11 11:54:36;;;;;;;3.67;1.70;;;16.00;72.30;;;;;;4936554;29;20041;-72
2022/04/11 11:57:11;;;;;;;3.03;1.40;;;15.80;72.20;;;;;;4953443;29;20109;-72
2022/04/11 12:00:06;;;;;;;3.72;1.70;;;15.80;72.10;;;;;;4952870;29;20070;-72
2022/04/11 12:05:24;;;;;;;1.98;1.25;;;16.20;72.50;;;;;;4952849;29;20084;-72
2022/04/11 12:08:14;;;;;;;5.72;2.00;;;16.00;71.10;;;;;;4936123;29;20051;-72
2022/04/11 12:10:40;;;;;;;4.93;2.00;;;16.00;72.40;;;;;;4952216;28;20083;-73
2022/04/11 12:13:06;;;;;;;3.42;1.60;;;16.20;72.20;;;;;;4952907;29;20043;-73
2022/04/11 12:15:34;;;;;;;4.57;1.95;;;16.40;73.70;;;;;;4936645;29;20402;-73
2022/04/11 12:18:02;;;;;;;4.15;1.80;;;16.40;72.20;;;;;;4952674;29;20348;-73
2022/04/11 12:20:30;;;;;;;3.08;1.80;;;16.50;72.60;;;;;;4952467;29;20451;-73
2022/04/11 12:23:15;;;;;;;3.28;1.80;;;16.60;71.10;;;;;;4952307;29;20382;-73
2022/04/11 12:25:52;;;;;;;5.47;2.10;;;16.60;71.50;;;;;;4952738;29;20043;-73
2022/04/11 12:28:26;;;;;;;3.53;1.67;;;16.20;69.00;;;;;;4952235;29;20046;-73
2022/04/11 12:31:07;;;;;;;4.65;2.17;;;16.00;69.40;;;;;;4952148;29;20430;-73
2022/04/11 12:33:38;;;;;;;2.97;1.70;;;16.10;70.40;;;;;;4951868;28;20070;-73
2022/04/11 12:36:16;;;;;;;2.40;1.50;;;16.40;71.80;;;;;;4952087;29;20509;-73
2022/04/11 12:38:52;;;;;;;3.60;1.77;;;16.50;69.90;;;;;;4952024;29;20058;-73
2022/04/11 12:41:36;;;;;;;3.63;1.73;;;16.40;69.70;;;;;;4951958;29;20051;-72
2022/04/11 12:44:16;;;;;;;3.22;1.92;;;16.40;67.50;;;;;;4951996;28;20047;-72
2022/04/11 12:47:00;;;;;;;3.92;1.75;;;16.50;68.30;;;;;;4951740;29;20039;-72
2022/04/11 12:49:52;;;;;;;2.75;1.70;;;16.50;69.50;;;;;;4951879;28;20047;-73
2022/04/11 12:52:23;;;;;;;3.13;1.70;;;16.50;69.20;;;;;;4951519;29;20097;-72
2022/04/11 12:54:51;;;;;;;2.85;1.50;;;16.50;69.20;;;;;;4952089;29;20046;-72
2022/04/11 12:57:25;;;;;;;3.47;1.90;;;16.70;69.60;;;;;;4951791;28;20098;-81
2022/04/11 12:59:52;;;;;;;6.55;2.58;;;16.50;67.40;;;;;;4951836;28;20045;-80
2022/04/11 13:02:20;;;;;;;3.72;1.90;;;16.10;66.90;;;;;;4950982;28;20079;-80